Terminal Aerodrome Forecast
Issued by NWS La Crosse, WI

Home | Current Version | Previous Version | Text Only | Print | Product List | Glossary On
Versions: 1 2 3 4 5 6 7 8 9 10 11 12 13 14 15 16 17 18 19 20 21 22 23 24 25 26 27 28 29 30 31
000
FTUS43 KARX 282326
TAFRST
TAF
KRST 282326Z 2900/2924 10012KT P6SM VCSH BKN035
     FM290200 09010KT P6SM OVC020
     FM290500 09007KT 3SM BR OVC003
     FM291600 07005KT P6SM BKN007
     FM291900 07005KT P6SM SCT015=

USA.gov is the U.S. government's official web portal to all federal, state and local government web resources and services.